createdAt,value
2022-09-06T00:00:36.009Z,0
2022-09-06T00:01:44.187Z,0
2022-09-06T00:02:53.355Z,0
2022-09-06T00:04:02.522Z,0
2022-09-06T00:05:11.697Z,0
2022-09-06T00:06:20.864Z,0
2022-09-06T00:07:30.049Z,0
2022-09-06T00:08:39.211Z,0
2022-09-06T00:09:48.402Z,0
2022-09-06T00:10:57.568Z,0
2022-09-06T00:12:06.730Z,0
2022-09-06T00:13:15.904Z,0
2022-09-06T00:14:25.080Z,0
2022-09-06T00:15:34.244Z,0
2022-09-06T00:16:42.444Z,0
2022-09-06T00:17:51.612Z,0
2022-09-06T00:19:00.777Z,0
2022-09-06T00:20:09.959Z,0
2022-09-06T00:21:19.138Z,0
2022-09-06T00:22:28.323Z,0
2022-09-06T00:23:37.471Z,0
2022-09-06T00:24:46.665Z,0
2022-09-06T00:25:55.812Z,0
2022-09-06T00:27:04.983Z,0
2022-09-06T00:28:14.158Z,0
2022-09-06T00:29:23.331Z,0
2022-09-06T00:30:32.514Z,0
2022-09-06T00:31:40.696Z,0
2022-09-06T00:32:49.868Z,0
2022-09-06T00:33:59.047Z,0
2022-09-06T00:35:08.211Z,0
2022-09-06T00:36:17.407Z,0
2022-09-06T00:37:26.555Z,0
2022-09-06T00:38:35.724Z,0
2022-09-06T00:39:44.903Z,0
2022-09-06T00:40:54.068Z,0
2022-09-06T00:42:03.248Z,0
2022-09-06T00:43:12.422Z,0
2022-09-06T00:44:21.593Z,0
2022-09-06T00:45:30.760Z,0
2022-09-06T00:46:38.957Z,0
2022-09-06T00:47:48.117Z,0
2022-09-06T00:48:57.313Z,0
2022-09-06T00:50:06.466Z,0
2022-09-06T00:51:15.639Z,0
2022-09-06T00:52:24.821Z,0
2022-09-06T00:53:33.978Z,0
2022-09-06T00:54:43.157Z,0
2022-09-06T00:55:52.320Z,0
2022-09-06T00:57:01.504Z,0
2022-09-06T00:58:10.674Z,0
2022-09-06T00:59:19.845Z,0
2022-09-06T01:00:29.015Z,0
2022-09-06T01:01:37.201Z,0
2022-09-06T01:02:46.389Z,0
2022-09-06T01:03:55.556Z,0
2022-09-06T01:05:04.720Z,0
2022-09-06T01:06:13.904Z,0
2022-09-06T01:07:23.065Z,0
2022-09-06T01:08:32.231Z,0
2022-09-06T01:09:41.410Z,0
2022-09-06T01:10:50.581Z,0
2022-09-06T01:11:59.766Z,0
2022-09-06T01:13:08.929Z,0
2022-09-06T01:14:18.102Z,0
2022-09-06T01:15:27.266Z,0
2022-09-06T01:16:35.464Z,0
2022-09-06T01:17:44.639Z,0
2022-09-06T01:18:53.801Z,0
2022-09-06T01:20:02.988Z,0
2022-09-06T01:21:12.155Z,0
2022-09-06T01:22:21.322Z,0
2022-09-06T01:23:30.504Z,0
2022-09-06T01:24:39.662Z,0
2022-09-06T01:26:58.014Z,0
2022-09-06T01:28:07.189Z,0
2022-09-06T01:29:16.362Z,0
2022-09-06T01:30:25.539Z,0
2022-09-06T01:31:33.713Z,0
2022-09-06T01:32:42.881Z,0
2022-09-06T01:33:52.063Z,0
2022-09-06T01:35:01.242Z,0
2022-09-06T01:36:10.420Z,0
2022-09-06T01:37:19.578Z,0
2022-09-06T01:38:28.750Z,0
2022-09-06T01:39:37.929Z,0
2022-09-06T01:40:47.096Z,0
2022-09-06T01:41:56.263Z,0
2022-09-06T01:43:05.442Z,0
2022-09-06T01:44:14.622Z,0
2022-09-06T01:45:23.787Z,0
2022-09-06T01:46:31.984Z,0
2022-09-06T01:47:41.145Z,0
2022-09-06T01:48:50.326Z,0
2022-09-06T01:49:59.495Z,0
2022-09-06T01:51:08.674Z,0
2022-09-06T01:52:17.841Z,0
2022-09-06T01:53:27.018Z,0
2022-09-06T01:54:36.188Z,0
2022-09-06T01:55:45.354Z,0
2022-09-06T01:56:54.528Z,0
2022-09-06T01:58:03.703Z,0
2022-09-06T01:59:12.877Z,0
2022-09-06T02:00:22.048Z,0
2022-09-06T02:01:30.253Z,0
2022-09-06T02:02:39.407Z,0
2022-09-06T02:03:48.581Z,0
2022-09-06T02:04:57.758Z,0
2022-09-06T02:06:06.914Z,0
2022-09-06T02:07:16.101Z,0
2022-09-06T02:08:25.268Z,0
2022-09-06T02:09:34.443Z,0
2022-09-06T02:10:43.608Z,0
2022-09-06T02:11:52.780Z,0
2022-09-06T02:13:01.953Z,0
2022-09-06T02:14:11.148Z,0
2022-09-06T02:15:20.307Z,0
2022-09-06T02:16:28.495Z,0
2022-09-06T02:17:37.669Z,0
2022-09-06T02:18:46.829Z,0
2022-09-06T02:19:56.012Z,0
2022-09-06T02:21:05.181Z,0
2022-09-06T02:22:14.376Z,0
2022-09-06T02:23:23.529Z,0
2022-09-06T02:24:32.698Z,0
2022-09-06T02:25:41.896Z,0
2022-09-06T02:26:51.047Z,0
2022-09-06T02:28:00.219Z,0
2022-09-06T02:29:09.381Z,0
2022-09-06T02:30:18.565Z,0
2022-09-06T02:31:26.756Z,0
2022-09-06T02:32:35.929Z,0
2022-09-06T02:33:45.096Z,0
2022-09-06T02:34:54.270Z,0
2022-09-06T02:36:03.441Z,0
2022-09-06T02:37:12.617Z,0
2022-09-06T02:38:21.817Z,0
2022-09-06T02:39:30.962Z,0
2022-09-06T02:40:40.136Z,0
2022-09-06T02:41:49.306Z,0
2022-09-06T02:42:58.477Z,0
2022-09-06T02:44:07.640Z,0
2022-09-06T02:45:16.825Z,0
2022-09-06T02:46:25.012Z,0
2022-09-06T02:47:34.181Z,0
2022-09-06T02:48:42.377Z,0
2022-09-06T02:49:51.554Z,0
2022-09-06T02:51:00.738Z,0
2022-09-06T02:52:09.895Z,0
2022-09-06T02:53:19.059Z,0
2022-09-06T02:54:28.236Z,0
2022-09-06T02:55:37.411Z,0
2022-09-06T02:56:46.587Z,0
2022-09-06T02:57:55.751Z,0
2022-09-06T02:59:04.927Z,0
2022-09-06T03:00:14.101Z,0
2022-09-06T03:01:23.268Z,0
2022-09-06T03:02:32.450Z,0
2022-09-06T03:03:40.636Z,0
2022-09-06T03:04:49.817Z,0
2022-09-06T03:05:58.977Z,0
2022-09-06T03:07:08.157Z,0
2022-09-06T03:08:17.329Z,0
2022-09-06T03:09:26.491Z,0
2022-09-06T03:10:35.673Z,0
2022-09-06T03:11:44.842Z,0
2022-09-06T03:12:54.012Z,0
2022-09-06T03:14:03.185Z,0
2022-09-06T03:15:12.344Z,0
2022-09-06T03:16:21.524Z,0
2022-09-06T03:17:30.697Z,0
2022-09-06T03:18:38.899Z,0
2022-09-06T03:19:48.061Z,0
2022-09-06T03:20:57.241Z,0
2022-09-06T03:22:06.417Z,0
2022-09-06T03:23:15.580Z,0
2022-09-06T03:24:24.750Z,0
2022-09-06T03:25:33.932Z,0
2022-09-06T03:26:43.107Z,0
2022-09-06T03:27:52.275Z,0
2022-09-06T03:29:01.441Z,0
2022-09-06T03:30:10.610Z,0
2022-09-06T03:31:19.793Z,0
2022-09-06T03:32:28.970Z,0
2022-09-06T03:33:37.145Z,0
2022-09-06T03:34:46.313Z,0
2022-09-06T03:35:55.502Z,0
2022-09-06T03:37:04.665Z,0
2022-09-06T03:38:13.853Z,0
2022-09-06T03:39:23.008Z,0
2022-09-06T03:40:32.180Z,0
2022-09-06T03:41:41.351Z,0
2022-09-06T03:42:50.524Z,0
2022-09-06T03:43:59.707Z,0
2022-09-06T03:45:08.873Z,0
2022-09-06T03:46:18.036Z,0
2022-09-06T03:47:27.215Z,0
2022-09-06T03:48:35.410Z,0
2022-09-06T03:49:44.572Z,0
2022-09-06T03:50:53.781Z,0
2022-09-06T03:52:02.923Z,0
2022-09-06T03:53:12.096Z,0
2022-09-06T03:54:21.281Z,0
2022-09-06T03:55:30.437Z,0
2022-09-06T03:56:39.615Z,0
2022-09-06T03:57:48.788Z,0
2022-09-06T03:58:57.958Z,0
2022-09-06T04:00:07.128Z,0
2022-09-06T04:01:16.307Z,0
2022-09-06T04:02:25.481Z,0
2022-09-06T04:03:33.661Z,0
2022-09-06T04:04:42.828Z,0
2022-09-06T04:05:52.012Z,0
2022-09-06T04:07:01.182Z,0
2022-09-06T04:08:10.351Z,0
2022-09-06T04:09:19.527Z,0
2022-09-06T04:10:28.698Z,0
2022-09-06T04:12:47.044Z,0
2022-09-06T04:13:56.211Z,0
2022-09-06T04:15:05.400Z,0
2022-09-06T04:16:14.555Z,0
2022-09-06T04:17:23.726Z,0
2022-09-06T04:18:31.915Z,0
2022-09-06T04:19:41.089Z,0
2022-09-06T04:20:50.266Z,0
2022-09-06T04:21:59.436Z,0
2022-09-06T04:23:08.634Z,0
2022-09-06T04:24:17.777Z,3
2022-09-06T04:25:26.963Z,3
2022-09-06T04:26:36.127Z,3
2022-09-06T04:27:45.292Z,3
2022-09-06T04:28:54.472Z,4
2022-09-06T04:30:03.639Z,0
2022-09-06T04:31:12.808Z,4
2022-09-06T04:32:21.987Z,4
2022-09-06T04:33:30.171Z,4
2022-09-06T04:34:39.352Z,9
2022-09-06T04:35:48.523Z,9
2022-09-06T04:36:57.699Z,1
2022-09-06T04:38:06.868Z,9
2022-09-06T04:39:16.036Z,9
2022-09-06T04:40:25.210Z,9
2022-09-06T04:41:34.381Z,13
2022-09-06T04:42:43.556Z,13
2022-09-06T04:43:52.738Z,13
2022-09-06T04:45:01.899Z,18
2022-09-06T04:46:11.067Z,10
2022-09-06T04:47:20.248Z,18
2022-09-06T04:48:28.445Z,26
2022-09-06T04:49:37.597Z,31
2022-09-06T04:50:46.771Z,23
2022-09-06T04:51:55.957Z,31
2022-09-06T04:53:05.118Z,41
2022-09-06T04:54:14.293Z,36
2022-09-06T04:55:23.472Z,41
2022-09-06T04:57:41.813Z,48
2022-09-06T04:58:50.978Z,52
2022-09-06T05:00:00.169Z,58
2022-09-06T05:01:09.351Z,58
2022-09-06T05:02:18.494Z,63
2022-09-06T05:03:26.688Z,63
2022-09-06T05:04:35.860Z,67
2022-09-06T05:05:45.033Z,73
2022-09-06T05:06:54.206Z,80
2022-09-06T05:08:03.373Z,82
2022-09-06T05:09:12.547Z,86
2022-09-06T05:10:21.726Z,86
2022-09-06T05:11:30.896Z,90
2022-09-06T05:12:40.064Z,99
2022-09-06T05:13:49.252Z,107
2022-09-06T05:14:58.407Z,115
2022-09-06T05:16:07.589Z,110
2022-09-06T05:17:16.779Z,117
2022-09-06T05:18:25.923Z,125
2022-09-06T05:19:34.115Z,150
2022-09-06T05:20:43.287Z,171
2022-09-06T05:21:52.478Z,196
2022-09-06T05:23:01.635Z,200
2022-09-06T05:24:10.800Z,243
2022-09-06T05:25:19.984Z,250
2022-09-06T05:26:29.143Z,290
2022-09-06T05:27:38.308Z,312
2022-09-06T05:28:47.489Z,329
2022-09-06T05:29:56.655Z,337
2022-09-06T05:32:15.002Z,333
2022-09-06T05:33:24.178Z,318
2022-09-06T05:34:32.362Z,304
2022-09-06T05:35:41.530Z,294
2022-09-06T05:36:50.712Z,287
2022-09-06T05:37:59.884Z,300
2022-09-06T05:39:09.059Z,287
2022-09-06T05:40:18.223Z,291
2022-09-06T05:41:27.410Z,303
2022-09-06T05:42:36.571Z,316
2022-09-06T05:43:45.736Z,317
2022-09-06T05:44:54.918Z,327
2022-09-06T05:46:04.088Z,346
2022-09-06T05:47:13.263Z,361
2022-09-06T05:48:22.428Z,381
2022-09-06T05:49:30.620Z,397
2022-09-06T05:50:39.794Z,434
2022-09-06T05:51:48.972Z,459
2022-09-06T05:52:58.143Z,497
2022-09-06T05:54:07.320Z,530
2022-09-06T05:55:16.491Z,543
2022-09-06T05:56:25.667Z,573
2022-09-06T05:57:34.841Z,615
2022-09-06T05:58:44.008Z,649
2022-09-06T05:59:53.179Z,681
2022-09-06T06:01:02.367Z,708
2022-09-06T06:02:11.545Z,727
2022-09-06T06:03:20.700Z,738
2022-09-06T06:04:28.884Z,748
2022-09-06T06:05:38.053Z,759
2022-09-06T06:06:47.231Z,759
2022-09-06T06:07:56.401Z,784
2022-09-06T06:09:05.566Z,853
2022-09-06T06:10:14.749Z,898
2022-09-06T06:11:22.937Z,952
2022-09-06T06:12:32.127Z,1008
2022-09-06T06:13:40.303Z,1016
2022-09-06T06:14:49.478Z,1023
2022-09-06T06:15:58.670Z,1031
2022-09-06T06:17:07.819Z,979
2022-09-06T06:18:17.028Z,894
2022-09-06T06:19:26.168Z,835
2022-09-06T06:20:35.344Z,782
2022-09-06T06:21:44.508Z,756
2022-09-06T06:22:53.678Z,752
2022-09-06T06:24:02.858Z,775
2022-09-06T06:25:12.020Z,766
2022-09-06T06:26:21.194Z,809
2022-09-06T06:28:39.544Z,904
2022-09-06T06:30:56.913Z,1044
2022-09-06T06:32:05.098Z,1145
2022-09-06T06:33:13.292Z,1259
2022-09-06T06:34:22.454Z,1340
2022-09-06T06:35:31.641Z,1394
2022-09-06T06:36:40.808Z,1518
2022-09-06T06:37:50.037Z,1596
2022-09-06T06:38:59.164Z,1602
2022-09-06T06:40:07.366Z,1598
2022-09-06T06:41:16.511Z,1655
2022-09-06T06:42:25.688Z,1707
2022-09-06T06:43:34.849Z,1791
2022-09-06T06:44:43.050Z,1826
2022-09-06T06:45:51.239Z,1890
2022-09-06T06:47:00.398Z,1941
2022-09-06T06:48:09.575Z,1977
2022-09-06T06:49:18.755Z,2060
2022-09-06T06:50:27.923Z,2177
2022-09-06T06:51:37.092Z,2307
2022-09-06T06:52:46.270Z,2436
2022-09-06T06:53:55.441Z,2547
2022-09-06T06:55:04.623Z,2635
2022-09-06T06:56:13.774Z,2757
2022-09-06T06:57:22.963Z,2878
2022-09-06T06:58:32.143Z,2981
2022-09-06T06:59:41.306Z,3057
2022-09-06T07:00:49.486Z,3050
2022-09-06T07:01:58.662Z,3185
2022-09-06T07:03:07.846Z,3332
2022-09-06T07:04:17.001Z,3344
2022-09-06T07:05:26.181Z,3323
2022-09-06T07:06:35.357Z,3306
2022-09-06T07:07:44.525Z,3262
2022-09-06T07:08:53.703Z,3283
2022-09-06T07:10:02.878Z,3147
2022-09-06T07:11:12.029Z,3028
2022-09-06T07:12:21.207Z,2942
2022-09-06T07:13:30.378Z,2899
2022-09-06T07:14:39.561Z,2901
2022-09-06T07:15:47.742Z,2916
2022-09-06T07:16:56.913Z,2937
2022-09-06T07:18:06.085Z,2946
2022-09-06T07:19:15.267Z,2974
2022-09-06T07:20:24.424Z,2993
2022-09-06T07:21:33.594Z,3052
2022-09-06T07:22:42.778Z,3103
2022-09-06T07:23:51.960Z,3117
2022-09-06T07:25:01.120Z,3097
2022-09-06T07:26:10.292Z,3048
2022-09-06T07:27:19.469Z,3053
2022-09-06T07:28:28.638Z,3237
2022-09-06T07:29:37.804Z,3123
2022-09-06T07:30:45.988Z,2605
2022-09-06T07:31:55.166Z,3357
2022-09-06T07:33:04.348Z,3117
2022-09-06T07:34:13.507Z,2899
2022-09-06T07:35:22.685Z,1212
2022-09-06T07:36:31.863Z,5988
2022-09-06T07:37:41.026Z,3411
2022-09-06T07:38:50.214Z,1367
2022-09-06T07:39:59.373Z,4083
2022-09-06T07:41:08.552Z,3998
2022-09-06T07:42:17.720Z,4100
2022-09-06T07:43:26.891Z,4128
2022-09-06T07:44:36.073Z,4057
2022-09-06T07:45:44.257Z,4059
2022-09-06T07:46:53.427Z,4101
2022-09-06T07:48:02.601Z,4076
2022-09-06T07:49:11.767Z,4126
2022-09-06T07:50:20.939Z,4135
2022-09-06T07:51:30.122Z,4140
2022-09-06T07:52:39.285Z,4158
2022-09-06T07:53:48.452Z,4184
2022-09-06T07:54:57.638Z,4186
2022-09-06T07:56:06.802Z,4250
2022-09-06T07:57:15.974Z,4246
2022-09-06T07:58:25.151Z,4266
2022-09-06T07:59:34.339Z,4295
2022-09-06T08:00:42.501Z,4323
2022-09-06T08:01:51.684Z,4340
2022-09-06T08:03:00.853Z,4406
2022-09-06T08:04:10.027Z,4426
2022-09-06T08:05:19.207Z,4486
2022-09-06T08:06:28.366Z,4486
2022-09-06T08:07:37.600Z,4531
2022-09-06T08:08:46.717Z,4589
2022-09-06T08:09:55.899Z,4594
2022-09-06T08:11:05.091Z,4646
2022-09-06T08:12:14.239Z,4719
2022-09-06T08:13:23.411Z,4767
2022-09-06T08:14:32.576Z,4852
2022-09-06T08:15:40.768Z,4863
2022-09-06T08:16:49.936Z,4954
2022-09-06T08:17:59.117Z,5027
2022-09-06T08:19:08.278Z,5094
2022-09-06T08:21:26.624Z,5182
2022-09-06T08:22:35.807Z,5229
2022-09-06T08:23:44.976Z,5297
2022-09-06T08:24:54.144Z,5322
2022-09-06T08:26:03.317Z,5289
2022-09-06T08:27:12.495Z,5597
2022-09-06T08:28:21.665Z,5878
2022-09-06T08:29:30.840Z,5920
2022-09-06T08:30:40.011Z,5948
2022-09-06T08:31:48.259Z,6015
2022-09-06T08:32:57.377Z,6065
2022-09-06T08:34:06.548Z,6158
2022-09-06T08:35:15.712Z,6201
2022-09-06T08:36:24.891Z,6205
2022-09-06T08:37:34.055Z,6223
2022-09-06T08:38:43.237Z,6218
2022-09-06T08:39:52.407Z,6502
2022-09-06T08:41:01.583Z,6824
2022-09-06T08:42:10.750Z,6661
2022-09-06T08:43:19.926Z,6548
2022-09-06T08:44:29.094Z,6549
2022-09-06T08:45:38.278Z,6511
2022-09-06T08:46:46.459Z,6642
2022-09-06T08:47:55.625Z,6633
2022-09-06T08:49:04.804Z,6608
2022-09-06T08:50:13.976Z,6651
2022-09-06T08:51:23.161Z,6699
2022-09-06T08:52:32.329Z,6676
2022-09-06T08:53:41.485Z,6781
2022-09-06T08:54:50.667Z,6733
2022-09-06T08:55:59.837Z,6776
2022-09-06T08:57:09.008Z,6744
2022-09-06T08:58:18.192Z,6846
2022-09-06T08:59:27.363Z,6879
2022-09-06T09:00:36.533Z,6880
2022-09-06T09:01:44.719Z,6852
2022-09-06T09:02:53.901Z,6938
2022-09-06T09:04:03.110Z,6965
2022-09-06T09:05:12.227Z,6988
2022-09-06T09:06:21.403Z,7058
2022-09-06T09:07:30.584Z,6984
2022-09-06T09:08:39.754Z,7051
2022-09-06T09:09:48.929Z,7027
2022-09-06T09:10:58.090Z,7139
2022-09-06T09:12:07.275Z,7161
2022-09-06T09:13:16.441Z,7162
2022-09-06T09:14:25.608Z,7170
2022-09-06T09:15:34.786Z,7216
2022-09-06T09:16:42.981Z,7291
2022-09-06T09:17:52.146Z,7315
2022-09-06T09:19:01.323Z,7278
2022-09-06T09:20:10.498Z,7317
2022-09-06T09:22:28.829Z,7494
2022-09-06T09:24:47.182Z,7393
2022-09-06T09:25:56.357Z,7451
2022-09-06T09:27:05.528Z,7506
2022-09-06T09:28:14.702Z,7439
2022-09-06T09:29:23.878Z,7425
2022-09-06T09:30:33.047Z,7549
2022-09-06T09:31:41.238Z,7547
2022-09-06T09:32:50.410Z,7506
2022-09-06T09:33:59.577Z,7519
2022-09-06T09:35:08.762Z,7526
2022-09-06T09:36:17.921Z,7597
2022-09-06T09:37:27.097Z,7661
2022-09-06T09:38:36.275Z,7690
2022-09-06T09:39:45.436Z,7623
2022-09-06T09:40:54.616Z,7728
2022-09-06T09:42:03.788Z,7743
2022-09-06T09:43:12.954Z,7770
2022-09-06T09:44:22.138Z,7814
2022-09-06T09:45:31.304Z,7868
2022-09-06T09:46:39.490Z,7848
2022-09-06T09:47:48.666Z,7929
2022-09-06T09:48:57.836Z,8100
2022-09-06T09:50:07.018Z,8100
2022-09-06T09:51:16.269Z,8032
2022-09-06T09:52:25.356Z,8273
2022-09-06T09:53:34.543Z,8678
2022-09-06T09:54:43.710Z,8923
2022-09-06T09:55:52.882Z,9809
2022-09-06T09:57:02.054Z,10856
2022-09-06T09:58:11.227Z,10330
2022-09-06T09:59:20.396Z,9694
2022-09-06T10:00:29.565Z,10026
2022-09-06T10:01:37.769Z,9099
2022-09-06T10:02:46.933Z,12565
2022-09-06T10:03:56.105Z,12401
2022-09-06T10:05:05.287Z,13687
2022-09-06T10:06:14.459Z,14556
2022-09-06T10:07:23.626Z,14059
2022-09-06T10:08:32.797Z,11740
2022-09-06T10:09:41.982Z,12240
2022-09-06T10:10:51.137Z,11836
2022-09-06T10:12:00.320Z,7951
2022-09-06T10:13:09.485Z,19615
2022-09-06T10:14:18.651Z,18605
2022-09-06T10:16:37.006Z,13825
2022-09-06T10:17:45.190Z,12411
2022-09-06T10:18:54.371Z,15504
2022-09-06T10:20:03.540Z,14936
2022-09-06T10:21:12.712Z,12038
2022-09-06T10:22:21.886Z,12267
2022-09-06T10:23:31.064Z,15189
2022-09-06T10:24:40.227Z,12212
2022-09-06T10:25:49.426Z,12472
2022-09-06T10:26:58.578Z,11163
2022-09-06T10:28:07.748Z,10410
2022-09-06T10:29:16.921Z,12447
2022-09-06T10:30:26.096Z,12904
2022-09-06T10:31:35.267Z,11407
2022-09-06T10:32:43.462Z,12995
2022-09-06T10:33:52.635Z,11594
2022-09-06T10:35:01.833Z,10215
2022-09-06T10:36:10.982Z,12732
2022-09-06T10:37:20.147Z,12207
2022-09-06T10:38:29.326Z,11819
2022-09-06T10:39:38.491Z,11005
2022-09-06T10:40:47.700Z,11407
2022-09-06T10:41:56.869Z,10882
2022-09-06T10:43:06.024Z,12243
2022-09-06T10:44:15.190Z,12104
2022-09-06T10:45:24.372Z,10657
2022-09-06T10:46:33.560Z,9989
2022-09-06T10:48:50.901Z,12211
2022-09-06T10:50:00.070Z,10536
2022-09-06T10:51:09.241Z,10654
2022-09-06T10:52:18.420Z,11895
2022-09-06T10:53:27.597Z,10797
2022-09-06T10:54:36.762Z,10081
2022-09-06T10:55:45.950Z,9621
2022-09-06T10:56:55.108Z,9764
2022-09-06T10:58:04.290Z,9719
2022-09-06T10:59:13.451Z,9732
2022-09-06T11:00:22.623Z,9744
2022-09-06T11:01:31.802Z,9736
2022-09-06T11:02:40.009Z,9694
2022-09-06T11:03:49.171Z,9755
2022-09-06T11:04:58.336Z,9857
2022-09-06T11:06:07.510Z,9851
2022-09-06T11:07:16.687Z,9914
2022-09-06T11:08:25.860Z,9931
2022-09-06T11:09:35.042Z,9950
2022-09-06T11:10:44.215Z,10008
2022-09-06T11:11:53.376Z,9939
2022-09-06T11:13:02.559Z,10186
2022-09-06T11:14:11.731Z,10154
2022-09-06T11:15:20.921Z,10105
2022-09-06T11:16:30.068Z,10359
2022-09-06T11:17:39.251Z,10436
2022-09-06T11:18:47.427Z,10371
2022-09-06T11:19:56.601Z,10370
2022-09-06T11:21:05.777Z,10610
2022-09-06T11:22:14.942Z,10467
2022-09-06T11:23:24.126Z,10467
2022-09-06T11:24:33.299Z,10501
2022-09-06T11:25:42.463Z,10672
2022-09-06T11:26:51.633Z,10690
2022-09-06T11:28:00.808Z,10636
2022-09-06T11:29:09.996Z,10519
2022-09-06T11:30:19.161Z,10509
2022-09-06T11:31:28.332Z,10671
2022-09-06T11:32:37.498Z,10785
2022-09-06T11:33:45.691Z,10723
2022-09-06T11:34:54.890Z,10867
2022-09-06T11:36:04.041Z,10939
2022-09-06T11:37:13.206Z,10734
2022-09-06T11:38:22.377Z,10878
2022-09-06T11:39:31.561Z,10944
2022-09-06T11:40:40.724Z,10940
2022-09-06T11:41:48.925Z,10921
2022-09-06T11:42:57.123Z,10964
2022-09-06T11:44:06.293Z,11013
2022-09-06T11:45:15.455Z,11195
2022-09-06T11:46:23.678Z,10866
2022-09-06T11:47:31.840Z,10867
2022-09-06T11:48:41.008Z,10971
2022-09-06T11:49:50.189Z,11083
2022-09-06T11:50:59.374Z,11321
2022-09-06T11:52:08.535Z,11443
2022-09-06T11:53:17.703Z,11467
2022-09-06T11:54:26.877Z,11483
2022-09-06T11:55:36.048Z,11567
2022-09-06T11:56:45.222Z,11576
2022-09-06T11:57:54.397Z,11654
2022-09-06T11:59:03.565Z,11743
2022-09-06T12:00:12.735Z,11909
2022-09-06T12:01:21.917Z,11806
2022-09-06T12:02:30.100Z,11806
2022-09-06T12:03:39.274Z,12041
2022-09-06T12:04:48.447Z,12155
2022-09-06T12:05:57.619Z,12277
2022-09-06T12:07:06.800Z,12298
2022-09-06T12:08:15.965Z,12419
2022-09-06T12:09:25.146Z,12542
2022-09-06T12:10:34.316Z,12573
2022-09-06T12:11:43.486Z,12541
2022-09-06T12:12:52.656Z,12682
2022-09-06T12:14:01.836Z,12820
2022-09-06T12:15:10.996Z,13094
2022-09-06T12:16:20.180Z,13163
2022-09-06T12:17:29.353Z,13243
2022-09-06T12:18:37.544Z,13318
2022-09-06T12:19:46.714Z,13436
2022-09-06T12:20:55.887Z,13380
2022-09-06T12:22:05.067Z,13515
2022-09-06T12:23:14.227Z,13451
2022-09-06T12:24:23.412Z,13877
2022-09-06T12:25:32.577Z,13855
2022-09-06T12:26:41.748Z,13961
2022-09-06T12:27:49.944Z,14087
2022-09-06T12:28:58.138Z,14118
2022-09-06T12:30:07.307Z,14196
2022-09-06T12:31:15.504Z,14613
2022-09-06T12:32:23.686Z,14836
2022-09-06T12:33:32.866Z,14983
2022-09-06T12:34:42.051Z,14834
2022-09-06T12:35:51.209Z,15359
2022-09-06T12:37:00.379Z,16067
2022-09-06T12:38:09.558Z,15554
2022-09-06T12:39:18.747Z,15064
2022-09-06T12:40:27.897Z,15938
2022-09-06T12:41:37.077Z,16200
2022-09-06T12:42:46.240Z,16155
2022-09-06T12:43:55.426Z,15868
2022-09-06T12:45:04.606Z,15841
2022-09-06T12:46:13.758Z,15872
2022-09-06T12:47:21.965Z,16018
2022-09-06T12:48:31.121Z,16073
2022-09-06T12:49:40.293Z,16180
2022-09-06T12:50:49.468Z,16492
2022-09-06T12:51:58.649Z,16497
2022-09-06T12:53:07.818Z,16457
2022-09-06T12:54:16.996Z,19200
2022-09-06T12:55:26.173Z,17474
2022-09-06T12:56:35.381Z,20308
2022-09-06T12:57:44.504Z,18307
2022-09-06T12:58:53.674Z,17553
2022-09-06T13:00:02.856Z,18035
2022-09-06T13:01:12.025Z,16694
2022-09-06T13:02:20.214Z,23157
2022-09-06T13:03:29.386Z,30035
2022-09-06T13:04:38.569Z,27182
2022-09-06T13:05:47.731Z,25613
2022-09-06T13:06:56.908Z,13418
2022-09-06T13:08:06.083Z,25117
2022-09-06T13:09:15.268Z,22665
2022-09-06T13:10:24.426Z,14262
2022-09-06T13:11:33.602Z,38756
2022-09-06T13:12:42.784Z,44344
2022-09-06T13:13:51.944Z,44274
2022-09-06T13:15:01.116Z,22784
2022-09-06T13:16:10.287Z,23899
2022-09-06T13:17:18.475Z,15601
2022-09-06T13:18:27.662Z,51540
2022-09-06T13:19:36.833Z,56505
2022-09-06T13:20:45.995Z,61453
2022-09-06T13:21:55.167Z,56043
2022-09-06T13:23:04.349Z,1501
2022-09-06T13:25:22.699Z,50298
2022-09-06T13:26:31.875Z,9593
2022-09-06T13:27:41.038Z,7065
2022-09-06T13:28:50.217Z,49318
2022-09-06T13:29:59.382Z,12923
2022-09-06T13:31:08.556Z,4470
2022-09-06T13:32:16.748Z,9488
2022-09-06T13:33:25.923Z,18821
2022-09-06T13:34:35.090Z,16499
2022-09-06T13:35:44.265Z,61986
2022-09-06T13:36:53.431Z,56174
2022-09-06T13:38:02.614Z,12889
2022-09-06T13:39:11.783Z,7206
2022-09-06T13:40:20.957Z,3368
2022-09-06T13:41:30.122Z,63432
2022-09-06T13:42:39.305Z,51351
2022-09-06T13:43:48.489Z,18422
2022-09-06T13:44:57.646Z,17791
2022-09-06T13:46:06.834Z,50962
2022-09-06T13:47:15.016Z,0
2022-09-06T13:48:24.193Z,2116
2022-09-06T13:50:42.552Z,17522
2022-09-06T13:51:51.704Z,15804
2022-09-06T13:53:00.880Z,55761
2022-09-06T13:54:10.055Z,22422
2022-09-06T13:55:19.232Z,18998
2022-09-06T13:56:28.411Z,19532
2022-09-06T13:57:37.600Z,17132
2022-09-06T13:58:46.748Z,18809
2022-09-06T13:59:55.926Z,20628
2022-09-06T14:01:05.090Z,22754
2022-09-06T14:02:13.292Z,14983
2022-09-06T14:03:22.457Z,43964
2022-09-06T14:04:31.629Z,19887
2022-09-06T14:05:40.805Z,25880
2022-09-06T14:06:49.977Z,21731
2022-09-06T14:07:59.154Z,24200
2022-09-06T14:09:08.319Z,31569
2022-09-06T14:10:17.489Z,28309
2022-09-06T14:11:26.660Z,49939
2022-09-06T14:12:35.833Z,11840
2022-09-06T14:13:45.009Z,11814
2022-09-06T14:14:54.185Z,9228
2022-09-06T14:16:03.375Z,19898
2022-09-06T14:17:11.548Z,21915
2022-09-06T14:18:20.720Z,16897
2022-09-06T14:19:29.889Z,27379
2022-09-06T14:20:39.071Z,21482
2022-09-06T14:21:48.241Z,26215
2022-09-06T14:22:57.417Z,50956
2022-09-06T14:24:06.590Z,0
2022-09-06T14:25:14.783Z,51479
2022-09-06T14:26:23.955Z,14615
2022-09-06T14:27:33.125Z,12958
2022-09-06T14:28:42.304Z,11011
2022-09-06T14:29:51.479Z,10040
2022-09-06T14:31:00.646Z,9735
2022-09-06T14:32:09.815Z,9464
2022-09-06T14:33:18.986Z,9424
2022-09-06T14:34:28.166Z,8237
2022-09-06T14:35:37.329Z,0
2022-09-06T14:36:46.513Z,26557
2022-09-06T14:37:55.694Z,27152
2022-09-06T14:39:04.844Z,34410
2022-09-06T14:40:13.047Z,24638
2022-09-06T14:41:22.217Z,22694
2022-09-06T14:42:31.396Z,23859
2022-09-06T14:43:40.570Z,28019
2022-09-06T14:44:49.746Z,31321
2022-09-06T14:45:58.917Z,31734
2022-09-06T14:47:08.079Z,35262
2022-09-06T14:48:17.252Z,31506
2022-09-06T14:49:26.426Z,31214
2022-09-06T14:50:35.601Z,27542
2022-09-06T14:51:44.774Z,27407
2022-09-06T14:52:53.940Z,28916
2022-09-06T14:54:03.120Z,27384
2022-09-06T14:55:11.303Z,28496
2022-09-06T14:56:20.486Z,25769
2022-09-06T14:57:29.665Z,27365
2022-09-06T14:58:38.821Z,27726
2022-09-06T14:59:48.007Z,29582
2022-09-06T15:00:57.176Z,32279
2022-09-06T15:02:06.355Z,31097
2022-09-06T15:03:15.521Z,27525
2022-09-06T15:04:24.691Z,27220
2022-09-06T15:05:33.871Z,29711
2022-09-06T15:06:43.042Z,36532
2022-09-06T15:07:52.215Z,31501
2022-09-06T15:09:01.393Z,36313
2022-09-06T15:10:10.562Z,33100
2022-09-06T15:11:18.748Z,24863
2022-09-06T15:12:27.915Z,24851
2022-09-06T15:13:37.100Z,31326
2022-09-06T15:14:46.263Z,32378
2022-09-06T15:15:55.440Z,16221
2022-09-06T15:17:04.610Z,44267
2022-09-06T15:18:13.817Z,27697
2022-09-06T15:19:22.968Z,31338
2022-09-06T15:20:32.132Z,31469
2022-09-06T15:21:41.308Z,31312
2022-09-06T15:22:50.479Z,29064
2022-09-06T15:23:59.666Z,31339
2022-09-06T15:25:08.827Z,34650
2022-09-06T15:26:17.013Z,34287
2022-09-06T15:27:26.194Z,26989
2022-09-06T15:28:35.360Z,29360
2022-09-06T15:29:44.534Z,31867
2022-09-06T15:30:53.706Z,31815
2022-09-06T15:32:02.879Z,32371
2022-09-06T15:33:12.060Z,29842
2022-09-06T15:34:21.237Z,25533
2022-09-06T15:35:30.411Z,29559
2022-09-06T15:36:39.603Z,35247
2022-09-06T15:37:48.752Z,32564
2022-09-06T15:38:57.929Z,32380
2022-09-06T15:40:07.088Z,28691
2022-09-06T15:41:15.293Z,26215
2022-09-06T15:42:24.467Z,30295
2022-09-06T15:43:33.636Z,35095
2022-09-06T15:44:42.804Z,32935
2022-09-06T15:45:51.986Z,32041
2022-09-06T15:47:01.146Z,36449
2022-09-06T15:48:10.328Z,33662
2022-09-06T15:49:19.496Z,29189
2022-09-06T15:50:28.671Z,32148
2022-09-06T15:51:37.837Z,33302
2022-09-06T15:52:47.025Z,33762
2022-09-06T15:53:56.191Z,34118
2022-09-06T15:55:05.355Z,28680
2022-09-06T15:56:14.540Z,26987